Priwall — V2OX8 — position and weather

sailwx.info

Track history (hours):
 
Tides and Currents Weather Stations Pressure Air Temp Water Temp Dewpoint Dewpoint Depression Visibility Wind Speed Wind Dir Waves Ship Positions

Priwall

Last reported at 2015-Jul-23 09:25 UTC. Time now 2015-Jul-30 06:07 UTC.
Position N 40°46' E 029°32'.

Length 88 m; draft 5.7 m.

Type: Ship. MMSI: 304739000.

Date/timePositionNaut miles runAvg speedWind from/ knotsBaromVisibWave heightAir tempDewpointWater temp
2015-Jul-23 09:25N 40°46' E 029°32'  
2015-Jul-17 19:23N 37°51' E 015°51'7 8.8
2015-Jul-17 18:33N 37°53' E 015°43'9 8.7
2015-Jul-17 17:33N 37°57' E 015°33'9 8.9
2015-Jul-17 16:33N 38°05' E 015°34'8 8.4
2015-Jul-17 15:33N 38°14' E 015°36'5 5.2
2015-Jul-17 14:34N 38°18' E 015°39'9 8.5
2015-Jul-17 13:33N 38°20' E 015°28'9 8.5
2015-Jul-17 12:33N 38°20' E 015°17'8 8.2
2015-Jul-17 11:33N 38°20' E 015°07'8 8.3
2015-Jul-17 10:33N 38°20' E 014°56'51 8.6
2015-Jul-17 04:33N 38°25' E 013°51'8 8.5
2015-Jul-17 03:33N 38°26' E 013°40'8 8.4
2015-Jul-17 02:34N 38°27' E 013°30'9 8.7
2015-Jul-17 01:34N 38°28' E 013°18'9 8.9
2015-Jul-17 00:34N 38°28' E 013°07'9 8.8
2015-Jul-16 23:34N 38°29' E 012°56'9 8.7
2015-Jul-16 22:33N 38°29' E 012°45'9 8.4
2015-Jul-16 21:33N 38°30' E 012°34'16 8.3
2015-Jul-16 19:34N 38°32' E 012°13'10 8.3
2015-Jul-16 18:24N 38°33' E 012°01'9 8.5
2015-Jul-16 17:17N 38°34' E 011°49'49 8.4
2015-Jul-16 11:25N 38°39' E 010°46'16 8.4
2015-Jul-16 09:32N 38°40' E 010°26'82 8.9
2015-Jul-16 00:14N 38°47' E 008°41'16 8.8
2015-Jul-15 22:22N 38°48' E 008°20'253 8.9
2015-Jul-14 18:04N 40°46' E 003°29'4 8.5
2015-Jul-14 17:33N 40°48' E 003°24'8 8.4
2015-Jul-14 16:33N 40°52' E 003°14'8 8.3
2015-Jul-14 15:33N 40°56' E 003°05'8 8.3
2015-Jul-14 14:33N 40°60' E 002°55'9 8.5
2015-Jul-14 13:33N 41°03' E 002°44'8 8.4
2015-Jul-14 12:33N 41°07' E 002°35'9 8.8
2015-Jul-14 11:33N 41°11' E 002°24'9 9.3
2015-Jul-14 10:33N 41°16' E 002°13'6 1.8
2015-Jul-14 07:17N 41°21' E 002°09'0 0.0
2015-Jul-14 06:29N 41°21' E 002°09'0 0.0
2015-Jul-14 03:29N 41°21' E 002°09'0 0.0
2015-Jul-13 21:05N 41°21' E 002°09'0 0.0
2015-Jul-13 20:32N 41°21' E 002°09'0 0.0
2015-Jul-13 19:32N 41°21' E 002°09'0 0.0
2015-Jul-13 18:29N 41°21' E 002°09'0 0.0
2015-Jul-13 14:17N 41°21' E 002°09'0 0.0
2015-Jul-13 12:11N 41°21' E 002°09'  
Track history (hours):
 
Tides and Currents Weather Stations Pressure Air Temp Water Temp Dewpoint Dewpoint Depression Visibility Wind Speed Wind Dir Waves Ship Positions

Priwall

Last reported at 2015-Jul-23 09:25 UTC. Time now 2015-Jul-30 06:07 UTC.
Position N 40°46' E 029°32'.

Length 88 m; draft 5.7 m.

Type: Ship. MMSI: 304739000.

Date/timePositionNaut miles runAvg speedWind from/ knotsBaromVisibWave heightAir tempDewpointWater temp
2015-Jul-23 09:25N 40°46' E 029°32'  
2015-Jul-17 19:23N 37°51' E 015°51'7 8.8
2015-Jul-17 18:33N 37°53' E 015°43'9 8.7
2015-Jul-17 17:33N 37°57' E 015°33'9 8.9
2015-Jul-17 16:33N 38°05' E 015°34'8 8.4
2015-Jul-17 15:33N 38°14' E 015°36'5 5.2
2015-Jul-17 14:34N 38°18' E 015°39'9 8.5
2015-Jul-17 13:33N 38°20' E 015°28'9 8.5
2015-Jul-17 12:33N 38°20' E 015°17'8 8.2
2015-Jul-17 11:33N 38°20' E 015°07'8 8.3
2015-Jul-17 10:33N 38°20' E 014°56'51 8.6
2015-Jul-17 04:33N 38°25' E 013°51'8 8.5
2015-Jul-17 03:33N 38°26' E 013°40'8 8.4
2015-Jul-17 02:34N 38°27' E 013°30'9 8.7
2015-Jul-17 01:34N 38°28' E 013°18'9 8.9
2015-Jul-17 00:34N 38°28' E 013°07'9 8.8
2015-Jul-16 23:34N 38°29' E 012°56'9 8.7
2015-Jul-16 22:33N 38°29' E 012°45'9 8.4
2015-Jul-16 21:33N 38°30' E 012°34'16 8.3
2015-Jul-16 19:34N 38°32' E 012°13'10 8.3
2015-Jul-16 18:24N 38°33' E 012°01'9 8.5
2015-Jul-16 17:17N 38°34' E 011°49'49 8.4
2015-Jul-16 11:25N 38°39' E 010°46'16 8.4
2015-Jul-16 09:32N 38°40' E 010°26'82 8.9
2015-Jul-16 00:14N 38°47' E 008°41'16 8.8
2015-Jul-15 22:22N 38°48' E 008°20'253 8.9
2015-Jul-14 18:04N 40°46' E 003°29'4 8.5
2015-Jul-14 17:33N 40°48' E 003°24'8 8.4
2015-Jul-14 16:33N 40°52' E 003°14'8 8.3
2015-Jul-14 15:33N 40°56' E 003°05'8 8.3
2015-Jul-14 14:33N 40°60' E 002°55'9 8.5
2015-Jul-14 13:33N 41°03' E 002°44'8 8.4
2015-Jul-14 12:33N 41°07' E 002°35'9 8.8
2015-Jul-14 11:33N 41°11' E 002°24'9 9.3
2015-Jul-14 10:33N 41°16' E 002°13'6 1.8
2015-Jul-14 07:17N 41°21' E 002°09'0 0.0
2015-Jul-14 06:29N 41°21' E 002°09'0 0.0
2015-Jul-14 03:29N 41°21' E 002°09'0 0.0
2015-Jul-13 21:05N 41°21' E 002°09'0 0.0
2015-Jul-13 20:32N 41°21' E 002°09'0 0.0
2015-Jul-13 19:32N 41°21' E 002°09'0 0.0
2015-Jul-13 18:29N 41°21' E 002°09'0 0.0
2015-Jul-13 14:17N 41°21' E 002°09'0 0.0
2015-Jul-13 12:11N 41°21' E 002°09'  

Dump ship's entire track history